Aérodrome :
LOGIN :

S'inscrire | Disclaimer

   EN    FR    IT 

 










Légende :    VFR   VFR Marginal   IFR   IFR Intensif   IFR Très Intensif
Visi : 
Plafond : 
>= 8 km
>= 3000ft
5 à 8 km
1000 à 3000 ft
1500m à 5 km
500 à 1000 ft
800 à 1500m
200 à 500 ft
< 800m
< 200 ft
Symboles :   Orages  Brouillard  Fortes neiges  Fortes précipitations  Vent > 20 kt
SIGMETs :   Divers  Orages  Givrage  Turbulence  Onde Orograph.  Cendres Volcan.







- Altitude de l'aérodrome : 2026 ft
- Code IATA : TOJ


LETO - Madrid Torrejon

DERNIER METAR :
  • 140800Z 22005KT 1200 R22/1800D R04/P2000 BR BKN002 06/06 Q1022 BECMG 0700 FG VV001

METARs EXPIRÉS :
  • 140729Z 22008KT 1200 R22/P2000 R04/P2000 BR BKN002 06/06 Q1022 BECMG 0700 FG VV001
  • 140700Z 22005KT 0800 R22/1400N R04/P2000 FG BKN001 06/06 Q1022 NOSIG
  • 140622Z 21009KT 1500 BR BKN001 06/06 Q1022 BECMG 0800 FG VV001
  • 140600Z 22003KT 2000 BR OVC002 06/06 Q1022 TEMPO BKN001
  • 140531Z 23004KT 200V260 4000 BR BKN002 05/05 Q1022 NOSIG

TAF AMD TAF LETO
Valide du 14 à 06h jusqu'au 15 à 06h UTC


140622Z 1406/1506 23007KT 9999 BKN004 TX10/1415Z TN02/1406Z
TEMPO 1406/1410 0800 FG VV001
TEMPO 1413/1417 OVC007
BECMG 1502/1504 SCT003
Pas de NOTAMs connus pour ce terrain.



MET'MAP, la Météo Aéronautique d'un coup d'oeil ! - Copyright ORBIFLY Décembre 2007 - Disclaimer

ORBIFLY MET'MAP TEAM :

Programmation & Développement : Alexandra Zaïnal
Conception & Développement : Baudouin d'Aumeries
Co-Programmation & Développement : Marc-Olivier Méhu
Soutien technique & logistique : Manuel Goepfert

Contact : metmap@orbifly.com




SOURCES & CREDITS :

   NOAA